sensor_id;sensor_type;location;lat;lon;timestamp;P1;durP1;ratioP1;P2;durP2;ratioP2
56653;SDS011;45096;52.302;4.634;2023-06-01T00:01:55;4.75;;;4.10;;
56653;SDS011;45096;52.302;4.634;2023-06-01T00:04:21;4.47;;;3.20;;
56653;SDS011;45096;52.302;4.634;2023-06-01T00:06:47;3.78;;;3.33;;
56653;SDS011;45096;52.302;4.634;2023-06-01T00:09:12;5.32;;;3.10;;
56653;SDS011;45096;52.302;4.634;2023-06-01T00:11:38;3.90;;;3.33;;
56653;SDS011;45096;52.302;4.634;2023-06-01T00:14:03;4.70;;;4.07;;
56653;SDS011;45096;52.302;4.634;2023-06-01T00:16:29;3.45;;;3.13;;
56653;SDS011;45096;52.302;4.634;2023-06-01T00:18:54;4.20;;;3.17;;
56653;SDS011;45096;52.302;4.634;2023-06-01T00:21:21;3.75;;;2.97;;
56653;SDS011;45096;52.302;4.634;2023-06-01T00:23:46;4.93;;;3.45;;
56653;SDS011;45096;52.302;4.634;2023-06-01T00:26:12;4.35;;;3.20;;
56653;SDS011;45096;52.302;4.634;2023-06-01T00:28:37;5.32;;;3.75;;
56653;SDS011;45096;52.302;4.634;2023-06-01T00:31:03;4.55;;;3.53;;
56653;SDS011;45096;52.302;4.634;2023-06-01T00:33:28;5.75;;;3.47;;
56653;SDS011;45096;52.302;4.634;2023-06-01T00:35:54;4.63;;;3.42;;
56653;SDS011;45096;52.302;4.634;2023-06-01T00:38:20;5.75;;;3.80;;
56653;SDS011;45096;52.302;4.634;2023-06-01T00:40:46;6.35;;;3.80;;
56653;SDS011;45096;52.302;4.634;2023-06-01T00:43:11;4.20;;;3.80;;
56653;SDS011;45096;52.302;4.634;2023-06-01T00:45:37;9.60;;;4.50;;
56653;SDS011;45096;52.302;4.634;2023-06-01T00:48:02;4.93;;;4.10;;
56653;SDS011;45096;52.302;4.634;2023-06-01T00:50:28;7.47;;;4.18;;
56653;SDS011;45096;52.302;4.634;2023-06-01T00:52:53;5.82;;;4.22;;
56653;SDS011;45096;52.302;4.634;2023-06-01T00:55:21;8.50;;;4.45;;
56653;SDS011;45096;52.302;4.634;2023-06-01T00:57:46;7.78;;;5.05;;
56653;SDS011;45096;52.302;4.634;2023-06-01T01:00:13;5.45;;;4.78;;
56653;SDS011;45096;52.302;4.634;2023-06-01T01:02:39;6.15;;;4.80;;
56653;SDS011;45096;52.302;4.634;2023-06-01T01:05:06;10.45;;;4.40;;
56653;SDS011;45096;52.302;4.634;2023-06-01T01:07:32;5.93;;;4.47;;
56653;SDS011;45096;52.302;4.634;2023-06-01T01:10:04;8.40;;;5.00;;
56653;SDS011;45096;52.302;4.634;2023-06-01T01:12:36;8.25;;;4.68;;
56653;SDS011;45096;52.302;4.634;2023-06-01T01:15:10;4.65;;;4.25;;
56653;SDS011;45096;52.302;4.634;2023-06-01T01:17:40;7.18;;;4.35;;
56653;SDS011;45096;52.302;4.634;2023-06-01T01:20:08;7.47;;;4.25;;
56653;SDS011;45096;52.302;4.634;2023-06-01T01:22:55;6.35;;;4.55;;
56653;SDS011;45096;52.302;4.634;2023-06-01T01:25:34;4.82;;;3.92;;
56653;SDS011;45096;52.302;4.634;2023-06-01T01:28:10;5.10;;;4.03;;
56653;SDS011;45096;52.302;4.634;2023-06-01T01:30:46;6.88;;;3.97;;
56653;SDS011;45096;52.302;4.634;2023-06-01T01:33:11;8.45;;;4.10;;
56653;SDS011;45096;52.302;4.634;2023-06-01T01:35:38;6.10;;;4.10;;
56653;SDS011;45096;52.302;4.634;2023-06-01T01:38:04;4.75;;;4.35;;
56653;SDS011;45096;52.302;4.634;2023-06-01T01:40:29;4.43;;;3.60;;
56653;SDS011;45096;52.302;4.634;2023-06-01T01:42:54;5.97;;;4.07;;
56653;SDS011;45096;52.302;4.634;2023-06-01T01:45:21;4.45;;;3.65;;
56653;SDS011;45096;52.302;4.634;2023-06-01T01:47:49;5.10;;;3.85;;
56653;SDS011;45096;52.302;4.634;2023-06-01T01:50:16;4.20;;;3.55;;
56653;SDS011;45096;52.302;4.634;2023-06-01T01:52:43;4.53;;;4.05;;
56653;SDS011;45096;52.302;4.634;2023-06-01T01:55:09;4.30;;;3.88;;
56653;SDS011;45096;52.302;4.634;2023-06-01T01:57:36;7.63;;;4.10;;
56653;SDS011;45096;52.302;4.634;2023-06-01T02:00:02;4.50;;;4.03;;
56653;SDS011;45096;52.302;4.634;2023-06-01T02:02:29;5.93;;;3.65;;
56653;SDS011;45096;52.302;4.634;2023-06-01T02:04:55;4.82;;;4.20;;
56653;SDS011;45096;52.302;4.634;2023-06-01T02:07:20;6.88;;;4.05;;
56653;SDS011;45096;52.302;4.634;2023-06-01T02:09:45;5.28;;;3.88;;
56653;SDS011;45096;52.302;4.634;2023-06-01T02:12:11;4.50;;;3.70;;
56653;SDS011;45096;52.302;4.634;2023-06-01T02:14:36;5.22;;;4.10;;
56653;SDS011;45096;52.302;4.634;2023-06-01T02:17:02;6.03;;;4.00;;
56653;SDS011;45096;52.302;4.634;2023-06-01T02:19:28;5.22;;;3.72;;
56653;SDS011;45096;52.302;4.634;2023-06-01T02:21:54;6.28;;;4.65;;
56653;SDS011;45096;52.302;4.634;2023-06-01T02:24:19;5.50;;;3.75;;
56653;SDS011;45096;52.302;4.634;2023-06-01T02:26:45;6.95;;;4.20;;
56653;SDS011;45096;52.302;4.634;2023-06-01T02:29:12;8.23;;;4.40;;
56653;SDS011;45096;52.302;4.634;2023-06-01T02:31:37;6.43;;;4.72;;
56653;SDS011;45096;52.302;4.634;2023-06-01T02:34:03;7.00;;;4.80;;
56653;SDS011;45096;52.302;4.634;2023-06-01T02:36:29;4.78;;;4.32;;
56653;SDS011;45096;52.302;4.634;2023-06-01T02:38:55;6.63;;;5.50;;
56653;SDS011;45096;52.302;4.634;2023-06-01T02:41:20;8.48;;;4.55;;
56653;SDS011;45096;52.302;4.634;2023-06-01T02:43:46;6.30;;;5.05;;
56653;SDS011;45096;52.302;4.634;2023-06-01T02:46:11;4.63;;;4.22;;
56653;SDS011;45096;52.302;4.634;2023-06-01T02:48:37;8.75;;;4.40;;
56653;SDS011;45096;52.302;4.634;2023-06-01T02:51:02;7.45;;;4.60;;
56653;SDS011;45096;52.302;4.634;2023-06-01T02:53:29;7.40;;;4.75;;
56653;SDS011;45096;52.302;4.634;2023-06-01T02:55:54;6.75;;;4.40;;
56653;SDS011;45096;52.302;4.634;2023-06-01T02:58:20;5.18;;;4.32;;
56653;SDS011;45096;52.302;4.634;2023-06-01T03:00:45;6.73;;;4.43;;
56653;SDS011;45096;52.302;4.634;2023-06-01T03:03:11;6.15;;;4.43;;
56653;SDS011;45096;52.302;4.634;2023-06-01T03:05:36;5.78;;;3.97;;
56653;SDS011;45096;52.302;4.634;2023-06-01T03:08:02;6.90;;;4.35;;
56653;SDS011;45096;52.302;4.634;2023-06-01T03:10:28;8.68;;;4.55;;
56653;SDS011;45096;52.302;4.634;2023-06-01T03:12:54;5.10;;;3.80;;
56653;SDS011;45096;52.302;4.634;2023-06-01T03:15:19;6.78;;;4.18;;
56653;SDS011;45096;52.302;4.634;2023-06-01T03:17:45;7.45;;;4.35;;
56653;SDS011;45096;52.302;4.634;2023-06-01T03:20:10;6.93;;;4.20;;
56653;SDS011;45096;52.302;4.634;2023-06-01T03:22:36;7.30;;;4.47;;
56653;SDS011;45096;52.302;4.634;2023-06-01T03:25:02;4.55;;;4.00;;
56653;SDS011;45096;52.302;4.634;2023-06-01T03:27:29;6.32;;;3.72;;
56653;SDS011;45096;52.302;4.634;2023-06-01T03:29:54;5.20;;;4.07;;
56653;SDS011;45096;52.302;4.634;2023-06-01T03:32:20;8.55;;;4.78;;
56653;SDS011;45096;52.302;4.634;2023-06-01T03:34:45;8.00;;;4.82;;
56653;SDS011;45096;52.302;4.634;2023-06-01T03:37:11;7.30;;;4.97;;
56653;SDS011;45096;52.302;4.634;2023-06-01T03:39:36;7.93;;;4.63;;
56653;SDS011;45096;52.302;4.634;2023-06-01T03:42:02;5.57;;;4.28;;
56653;SDS011;45096;52.302;4.634;2023-06-01T03:44:28;8.95;;;4.55;;
56653;SDS011;45096;52.302;4.634;2023-06-01T03:46:54;6.38;;;4.75;;
56653;SDS011;45096;52.302;4.634;2023-06-01T03:49:19;6.80;;;4.97;;
56653;SDS011;45096;52.302;4.634;2023-06-01T03:51:45;7.53;;;4.40;;
56653;SDS011;45096;52.302;4.634;2023-06-01T03:54:10;7.07;;;4.47;;
56653;SDS011;45096;52.302;4.634;2023-06-01T03:56:36;6.72;;;4.25;;
56653;SDS011;45096;52.302;4.634;2023-06-01T03:59:01;8.50;;;5.28;;
56653;SDS011;45096;52.302;4.634;2023-06-01T04:01:28;9.10;;;4.78;;
56653;SDS011;45096;52.302;4.634;2023-06-01T04:03:53;7.95;;;4.80;;
56653;SDS011;45096;52.302;4.634;2023-06-01T04:06:19;10.82;;;4.78;;
56653;SDS011;45096;52.302;4.634;2023-06-01T04:08:44;5.97;;;4.68;;
56653;SDS011;45096;52.302;4.634;2023-06-01T04:11:10;6.95;;;5.07;;
56653;SDS011;45096;52.302;4.634;2023-06-01T04:13:35;9.32;;;5.25;;
56653;SDS011;45096;52.302;4.634;2023-06-01T04:16:01;7.63;;;5.35;;
56653;SDS011;45096;52.302;4.634;2023-06-01T04:18:27;8.88;;;5.13;;
56653;SDS011;45096;52.302;4.634;2023-06-01T04:20:53;6.55;;;4.72;;
56653;SDS011;45096;52.302;4.634;2023-06-01T04:23:18;10.73;;;5.93;;
56653;SDS011;45096;52.302;4.634;2023-06-01T04:25:43;7.10;;;5.50;;
56653;SDS011;45096;52.302;4.634;2023-06-01T04:28:09;7.53;;;5.22;;
56653;SDS011;45096;52.302;4.634;2023-06-01T04:30:34;6.68;;;4.70;;
56653;SDS011;45096;52.302;4.634;2023-06-01T04:33:00;9.05;;;5.43;;
56653;SDS011;45096;52.302;4.634;2023-06-01T04:35:26;8.57;;;6.05;;
56653;SDS011;45096;52.302;4.634;2023-06-01T04:37:52;8.30;;;6.00;;
56653;SDS011;45096;52.302;4.634;2023-06-01T04:40:17;8.75;;;6.10;;
56653;SDS011;45096;52.302;4.634;2023-06-01T04:42:43;11.25;;;6.22;;
56653;SDS011;45096;52.302;4.634;2023-06-01T04:45:09;7.45;;;6.50;;
56653;SDS011;45096;52.302;4.634;2023-06-01T04:47:35;7.70;;;5.97;;
56653;SDS011;45096;52.302;4.634;2023-06-01T04:50:00;8.23;;;6.43;;
56653;SDS011;45096;52.302;4.634;2023-06-01T04:52:27;8.07;;;5.88;;
56653;SDS011;45096;52.302;4.634;2023-06-01T04:54:53;7.38;;;5.38;;
56653;SDS011;45096;52.302;4.634;2023-06-01T04:57:18;6.68;;;5.50;;
56653;SDS011;45096;52.302;4.634;2023-06-01T04:59:43;8.07;;;5.25;;
56653;SDS011;45096;52.302;4.634;2023-06-01T05:02:09;8.98;;;5.22;;
56653;SDS011;45096;52.302;4.634;2023-06-01T05:04:34;9.60;;;5.63;;
56653;SDS011;45096;52.302;4.634;2023-06-01T05:07:00;7.88;;;5.75;;
56653;SDS011;45096;52.302;4.634;2023-06-01T05:09:27;5.85;;;5.35;;
56653;SDS011;45096;52.302;4.634;2023-06-01T05:11:52;5.43;;;4.40;;
56653;SDS011;45096;52.302;4.634;2023-06-01T05:14:18;9.05;;;5.78;;
56653;SDS011;45096;52.302;4.634;2023-06-01T05:16:43;7.85;;;5.85;;
56653;SDS011;45096;52.302;4.634;2023-06-01T05:19:08;5.68;;;5.10;;
56653;SDS011;45096;52.302;4.634;2023-06-01T05:21:34;5.50;;;4.63;;
56653;SDS011;45096;52.302;4.634;2023-06-01T05:23:59;5.65;;;4.78;;
56653;SDS011;45096;52.302;4.634;2023-06-01T05:26:26;4.70;;;4.28;;
56653;SDS011;45096;52.302;4.634;2023-06-01T05:28:51;5.00;;;4.40;;
56653;SDS011;45096;52.302;4.634;2023-06-01T05:31:17;5.80;;;4.65;;
56653;SDS011;45096;52.302;4.634;2023-06-01T05:33:42;6.38;;;5.00;;
56653;SDS011;45096;52.302;4.634;2023-06-01T05:36:08;5.20;;;4.50;;
56653;SDS011;45096;52.302;4.634;2023-06-01T05:38:33;6.63;;;4.18;;
56653;SDS011;45096;52.302;4.634;2023-06-01T05:40:59;4.95;;;4.45;;
56653;SDS011;45096;52.302;4.634;2023-06-01T05:43:25;9.73;;;4.68;;
56653;SDS011;45096;52.302;4.634;2023-06-01T05:45:51;7.63;;;4.60;;
56653;SDS011;45096;52.302;4.634;2023-06-01T05:48:16;6.47;;;4.72;;
56653;SDS011;45096;52.302;4.634;2023-06-01T05:50:42;6.55;;;4.70;;
56653;SDS011;45096;52.302;4.634;2023-06-01T05:53:07;8.70;;;4.45;;
56653;SDS011;45096;52.302;4.634;2023-06-01T05:55:33;7.47;;;4.50;;
56653;SDS011;45096;52.302;4.634;2023-06-01T05:57:58;5.65;;;4.47;;
56653;SDS011;45096;52.302;4.634;2023-06-01T06:00:25;10.70;;;4.80;;
56653;SDS011;45096;52.302;4.634;2023-06-01T06:02:50;8.23;;;4.50;;
56653;SDS011;45096;52.302;4.634;2023-06-01T06:05:16;6.55;;;4.13;;
56653;SDS011;45096;52.302;4.634;2023-06-01T06:07:41;4.05;;;3.60;;
56653;SDS011;45096;52.302;4.634;2023-06-01T06:10:07;8.05;;;5.05;;
56653;SDS011;45096;52.302;4.634;2023-06-01T06:12:33;6.43;;;4.50;;
56653;SDS011;45096;52.302;4.634;2023-06-01T06:14:58;6.25;;;4.07;;
56653;SDS011;45096;52.302;4.634;2023-06-01T06:17:25;7.43;;;4.57;;
56653;SDS011;45096;52.302;4.634;2023-06-01T06:19:51;5.70;;;4.13;;
56653;SDS011;45096;52.302;4.634;2023-06-01T06:22:16;5.43;;;3.92;;
56653;SDS011;45096;52.302;4.634;2023-06-01T06:24:41;7.25;;;3.92;;
56653;SDS011;45096;52.302;4.634;2023-06-01T06:27:08;5.28;;;4.63;;
56653;SDS011;45096;52.302;4.634;2023-06-01T06:29:33;5.90;;;4.25;;
56653;SDS011;45096;52.302;4.634;2023-06-01T06:31:59;6.75;;;4.38;;
56653;SDS011;45096;52.302;4.634;2023-06-01T06:34:26;9.13;;;4.70;;
56653;SDS011;45096;52.302;4.634;2023-06-01T06:36:51;7.70;;;4.82;;
56653;SDS011;45096;52.302;4.634;2023-06-01T06:39:17;6.70;;;4.35;;
56653;SDS011;45096;52.302;4.634;2023-06-01T06:41:42;8.30;;;4.30;;
56653;SDS011;45096;52.302;4.634;2023-06-01T06:44:08;5.68;;;4.32;;
56653;SDS011;45096;52.302;4.634;2023-06-01T06:46:33;9.48;;;4.20;;
56653;SDS011;45096;52.302;4.634;2023-06-01T06:48:59;6.28;;;4.60;;
56653;SDS011;45096;52.302;4.634;2023-06-01T06:51:26;4.18;;;3.75;;
56653;SDS011;45096;52.302;4.634;2023-06-01T06:53:51;9.15;;;4.05;;
56653;SDS011;45096;52.302;4.634;2023-06-01T06:56:16;5.93;;;4.10;;
56653;SDS011;45096;52.302;4.634;2023-06-01T06:58:43;5.70;;;4.35;;
56653;SDS011;45096;52.302;4.634;2023-06-01T07:01:08;5.82;;;4.35;;
56653;SDS011;45096;52.302;4.634;2023-06-01T07:03:33;5.90;;;4.28;;
56653;SDS011;45096;52.302;4.634;2023-06-01T07:05:59;6.03;;;4.20;;
56653;SDS011;45096;52.302;4.634;2023-06-01T07:08:26;5.85;;;4.78;;
56653;SDS011;45096;52.302;4.634;2023-06-01T07:10:52;8.35;;;4.10;;
56653;SDS011;45096;52.302;4.634;2023-06-01T07:13:18;4.18;;;3.72;;
56653;SDS011;45096;52.302;4.634;2023-06-01T07:15:43;4.25;;;3.75;;
56653;SDS011;45096;52.302;4.634;2023-06-01T07:18:09;4.78;;;3.50;;
56653;SDS011;45096;52.302;4.634;2023-06-01T07:20:34;6.50;;;3.95;;
56653;SDS011;45096;52.302;4.634;2023-06-01T07:22:59;6.95;;;4.22;;
56653;SDS011;45096;52.302;4.634;2023-06-01T07:25:26;6.13;;;4.13;;
56653;SDS011;45096;52.302;4.634;2023-06-01T07:27:51;4.47;;;3.90;;
56653;SDS011;45096;52.302;4.634;2023-06-01T07:30:17;5.22;;;4.03;;
56653;SDS011;45096;52.302;4.634;2023-06-01T07:32:42;5.82;;;4.05;;
56653;SDS011;45096;52.302;4.634;2023-06-01T07:35:08;4.07;;;3.67;;
56653;SDS011;45096;52.302;4.634;2023-06-01T07:37:34;3.60;;;3.30;;
56653;SDS011;45096;52.302;4.634;2023-06-01T07:39:59;6.13;;;4.20;;
56653;SDS011;45096;52.302;4.634;2023-06-01T07:42:26;4.20;;;3.70;;
56653;SDS011;45096;52.302;4.634;2023-06-01T07:44:52;3.90;;;3.47;;
56653;SDS011;45096;52.302;4.634;2023-06-01T07:47:18;4.13;;;3.67;;
56653;SDS011;45096;52.302;4.634;2023-06-01T07:49:43;4.32;;;3.92;;
56653;SDS011;45096;52.302;4.634;2023-06-01T07:52:09;4.55;;;3.65;;
56653;SDS011;45096;52.302;4.634;2023-06-01T07:54:34;5.80;;;3.50;;
56653;SDS011;45096;52.302;4.634;2023-06-01T07:57:00;8.35;;;3.58;;
56653;SDS011;45096;52.302;4.634;2023-06-01T07:59:26;5.43;;;3.78;;
56653;SDS011;45096;52.302;4.634;2023-06-01T08:01:52;4.20;;;3.40;;
56653;SDS011;45096;52.302;4.634;2023-06-01T08:04:17;5.05;;;3.65;;
56653;SDS011;45096;52.302;4.634;2023-06-01T08:06:43;6.63;;;3.78;;
56653;SDS011;45096;52.302;4.634;2023-06-01T08:09:08;4.50;;;3.70;;
56653;SDS011;45096;52.302;4.634;2023-06-01T08:11:33;4.32;;;3.42;;
56653;SDS011;45096;52.302;4.634;2023-06-01T08:13:59;4.30;;;3.20;;
56653;SDS011;45096;52.302;4.634;2023-06-01T08:16:26;3.40;;;3.08;;
56653;SDS011;45096;52.302;4.634;2023-06-01T08:18:51;5.50;;;3.10;;
56653;SDS011;45096;52.302;4.634;2023-06-01T08:21:16;4.43;;;3.35;;
56653;SDS011;45096;52.302;4.634;2023-06-01T08:23:42;7.90;;;3.47;;
56653;SDS011;45096;52.302;4.634;2023-06-01T08:26:07;4.13;;;3.13;;
56653;SDS011;45096;52.302;4.634;2023-06-01T08:28:33;4.18;;;2.97;;
56653;SDS011;45096;52.302;4.634;2023-06-01T08:30:58;6.03;;;3.50;;
56653;SDS011;45096;52.302;4.634;2023-06-01T08:33:25;5.38;;;3.50;;
56653;SDS011;45096;52.302;4.634;2023-06-01T08:35:50;3.80;;;3.30;;
56653;SDS011;45096;52.302;4.634;2023-06-01T08:38:16;5.18;;;3.17;;
56653;SDS011;45096;52.302;4.634;2023-06-01T08:40:41;4.68;;;3.50;;
56653;SDS011;45096;52.302;4.634;2023-06-01T08:43:09;4.72;;;3.25;;
56653;SDS011;45096;52.302;4.634;2023-06-01T08:45:37;4.53;;;3.72;;
56653;SDS011;45096;52.302;4.634;2023-06-01T08:48:03;5.00;;;3.83;;
56653;SDS011;45096;52.302;4.634;2023-06-01T08:50:31;3.75;;;3.10;;
56653;SDS011;45096;52.302;4.634;2023-06-01T08:52:56;3.28;;;2.97;;
56653;SDS011;45096;52.302;4.634;2023-06-01T08:55:22;4.07;;;3.05;;
56653;SDS011;45096;52.302;4.634;2023-06-01T08:57:47;4.28;;;3.72;;
56653;SDS011;45096;52.302;4.634;2023-06-01T09:00:13;3.90;;;3.10;;
56653;SDS011;45096;52.302;4.634;2023-06-01T09:02:39;4.57;;;3.22;;
56653;SDS011;45096;52.302;4.634;2023-06-01T09:05:05;7.45;;;3.38;;
56653;SDS011;45096;52.302;4.634;2023-06-01T09:07:32;6.32;;;3.80;;
56653;SDS011;45096;52.302;4.634;2023-06-01T09:09:57;4.00;;;3.58;;
56653;SDS011;45096;52.302;4.634;2023-06-01T09:12:23;5.30;;;3.08;;
56653;SDS011;45096;52.302;4.634;2023-06-01T09:14:49;4.82;;;3.13;;
56653;SDS011;45096;52.302;4.634;2023-06-01T09:17:21;3.15;;;2.95;;
56653;SDS011;45096;52.302;4.634;2023-06-01T09:19:49;3.47;;;3.17;;
56653;SDS011;45096;52.302;4.634;2023-06-01T09:22:18;3.28;;;2.97;;
56653;SDS011;45096;52.302;4.634;2023-06-01T09:24:50;4.93;;;3.78;;
56653;SDS011;45096;52.302;4.634;2023-06-01T09:27:20;3.55;;;3.25;;
56653;SDS011;45096;52.302;4.634;2023-06-01T09:29:51;4.35;;;2.80;;
56653;SDS011;45096;52.302;4.634;2023-06-01T09:32:19;4.95;;;3.45;;
56653;SDS011;45096;52.302;4.634;2023-06-01T09:34:45;3.85;;;3.40;;
56653;SDS011;45096;52.302;4.634;2023-06-01T09:37:10;3.33;;;3.03;;
56653;SDS011;45096;52.302;4.634;2023-06-01T09:39:35;4.10;;;3.05;;
56653;SDS011;45096;52.302;4.634;2023-06-01T09:42:02;4.78;;;3.20;;
56653;SDS011;45096;52.302;4.634;2023-06-01T09:44:29;5.93;;;3.70;;
56653;SDS011;45096;52.302;4.634;2023-06-01T09:46:55;4.22;;;3.30;;
56653;SDS011;45096;52.302;4.634;2023-06-01T09:49:22;3.75;;;3.40;;
56653;SDS011;45096;52.302;4.634;2023-06-01T09:51:49;3.40;;;3.00;;
56653;SDS011;45096;52.302;4.634;2023-06-01T09:56:55;3.38;;;2.80;;
56653;SDS011;45096;52.302;4.634;2023-06-01T09:59:22;3.10;;;2.90;;
56653;SDS011;45096;52.302;4.634;2023-06-01T10:01:49;4.18;;;3.17;;
56653;SDS011;45096;52.302;4.634;2023-06-01T10:04:16;4.28;;;3.00;;
56653;SDS011;45096;52.302;4.634;2023-06-01T10:06:43;3.10;;;2.78;;
56653;SDS011;45096;52.302;4.634;2023-06-01T10:09:10;3.47;;;3.17;;
56653;SDS011;45096;52.302;4.634;2023-06-01T10:11:36;3.33;;;2.78;;
56653;SDS011;45096;52.302;4.634;2023-06-01T10:14:01;4.50;;;3.28;;
56653;SDS011;45096;52.302;4.634;2023-06-01T10:16:28;3.15;;;2.85;;
56653;SDS011;45096;52.302;4.634;2023-06-01T10:18:54;3.85;;;3.05;;
56653;SDS011;45096;52.302;4.634;2023-06-01T10:21:19;4.95;;;3.40;;
56653;SDS011;45096;52.302;4.634;2023-06-01T10:23:45;4.78;;;3.22;;
56653;SDS011;45096;52.302;4.634;2023-06-01T10:26:11;3.95;;;3.45;;
56653;SDS011;45096;52.302;4.634;2023-06-01T10:28:38;7.68;;;3.80;;
56653;SDS011;45096;52.302;4.634;2023-06-01T10:34:03;5.47;;;3.30;;
56653;SDS011;45096;52.302;4.634;2023-06-01T10:39:28;4.60;;;3.33;;
56653;SDS011;45096;52.302;4.634;2023-06-01T10:41:53;4.43;;;3.28;;
56653;SDS011;45096;52.302;4.634;2023-06-01T10:47:43;6.85;;;3.35;;
56653;SDS011;45096;52.302;4.634;2023-06-01T10:50:10;4.10;;;3.40;;
56653;SDS011;45096;52.302;4.634;2023-06-01T10:52:39;4.65;;;3.50;;
56653;SDS011;45096;52.302;4.634;2023-06-01T10:55:21;5.75;;;3.33;;
56653;SDS011;45096;52.302;4.634;2023-06-01T10:57:48;4.22;;;3.53;;
56653;SDS011;45096;52.302;4.634;2023-06-01T11:00:15;5.00;;;2.95;;
56653;SDS011;45096;52.302;4.634;2023-06-01T11:02:49;5.18;;;3.28;;
56653;SDS011;45096;52.302;4.634;2023-06-01T11:05:35;4.93;;;3.35;;
56653;SDS011;45096;52.302;4.634;2023-06-01T11:11:08;4.25;;;3.63;;
56653;SDS011;45096;52.302;4.634;2023-06-01T11:13:34;6.22;;;3.42;;
56653;SDS011;45096;52.302;4.634;2023-06-01T11:18:58;3.63;;;3.30;;
56653;SDS011;45096;52.302;4.634;2023-06-01T11:21:25;6.72;;;3.38;;
56653;SDS011;45096;52.302;4.634;2023-06-01T11:23:51;4.32;;;2.95;;
56653;SDS011;45096;52.302;4.634;2023-06-01T11:26:18;3.35;;;2.80;;
56653;SDS011;45096;52.302;4.634;2023-06-01T11:28:45;4.75;;;3.30;;
56653;SDS011;45096;52.302;4.634;2023-06-01T11:31:12;6.65;;;2.90;;
56653;SDS011;45096;52.302;4.634;2023-06-01T11:33:38;2.72;;;2.30;;
56653;SDS011;45096;52.302;4.634;2023-06-01T11:36:06;3.25;;;2.95;;
56653;SDS011;45096;52.302;4.634;2023-06-01T11:38:33;5.65;;;2.90;;
56653;SDS011;45096;52.302;4.634;2023-06-01T11:40:58;3.95;;;2.63;;
56653;SDS011;45096;52.302;4.634;2023-06-01T11:43:27;4.00;;;2.55;;
56653;SDS011;45096;52.302;4.634;2023-06-01T11:45:59;3.65;;;3.20;;
56653;SDS011;45096;52.302;4.634;2023-06-01T11:48:25;3.83;;;2.70;;
56653;SDS011;45096;52.302;4.634;2023-06-01T11:50:50;3.97;;;2.70;;
56653;SDS011;45096;52.302;4.634;2023-06-01T11:53:17;4.15;;;2.40;;
56653;SDS011;45096;52.302;4.634;2023-06-01T11:55:47;6.22;;;2.67;;
56653;SDS011;45096;52.302;4.634;2023-06-01T11:58:13;5.03;;;1.90;;
56653;SDS011;45096;52.302;4.634;2023-06-01T12:00:38;4.50;;;2.28;;
56653;SDS011;45096;52.302;4.634;2023-06-01T12:03:04;1.98;;;1.50;;
56653;SDS011;45096;52.302;4.634;2023-06-01T12:05:37;1.83;;;1.73;;
56653;SDS011;45096;52.302;4.634;2023-06-01T12:08:03;2.55;;;2.00;;
56653;SDS011;45096;52.302;4.634;2023-06-01T12:10:30;1.85;;;1.67;;
56653;SDS011;45096;52.302;4.634;2023-06-01T12:12:55;1.63;;;1.40;;
56653;SDS011;45096;52.302;4.634;2023-06-01T12:15:21;2.08;;;1.88;;
56653;SDS011;45096;52.302;4.634;2023-06-01T12:17:47;1.80;;;1.70;;
56653;SDS011;45096;52.302;4.634;2023-06-01T12:20:12;2.75;;;1.70;;
56653;SDS011;45096;52.302;4.634;2023-06-01T12:22:38;2.15;;;1.95;;
56653;SDS011;45096;52.302;4.634;2023-06-01T12:25:06;3.80;;;1.70;;
56653;SDS011;45096;52.302;4.634;2023-06-01T12:27:34;1.33;;;1.33;;
56653;SDS011;45096;52.302;4.634;2023-06-01T12:29:59;1.40;;;1.30;;
56653;SDS011;45096;52.302;4.634;2023-06-01T12:32:25;2.45;;;1.80;;
56653;SDS011;45096;52.302;4.634;2023-06-01T12:35:02;2.20;;;1.90;;
56653;SDS011;45096;52.302;4.634;2023-06-01T12:37:29;3.63;;;1.48;;
56653;SDS011;45096;52.302;4.634;2023-06-01T12:39:54;1.25;;;1.25;;
56653;SDS011;45096;52.302;4.634;2023-06-01T12:42:34;1.38;;;1.27;;
56653;SDS011;45096;52.302;4.634;2023-06-01T12:44:59;1.45;;;1.45;;
56653;SDS011;45096;52.302;4.634;2023-06-01T12:47:25;2.78;;;1.40;;
56653;SDS011;45096;52.302;4.634;2023-06-01T12:50:03;1.38;;;1.27;;
56653;SDS011;45096;52.302;4.634;2023-06-01T12:52:29;1.52;;;1.42;;
56653;SDS011;45096;52.302;4.634;2023-06-01T12:54:54;1.75;;;1.50;;
56653;SDS011;45096;52.302;4.634;2023-06-01T12:57:20;1.42;;;1.27;;
56653;SDS011;45096;52.302;4.634;2023-06-01T12:59:46;1.02;;;1.02;;
56653;SDS011;45096;52.302;4.634;2023-06-01T13:02:12;2.08;;;1.23;;
56653;SDS011;45096;52.302;4.634;2023-06-01T13:04:37;1.33;;;1.33;;
56653;SDS011;45096;52.302;4.634;2023-06-01T13:07:03;1.65;;;1.52;;
56653;SDS011;45096;52.302;4.634;2023-06-01T13:09:28;1.52;;;1.27;;
56653;SDS011;45096;52.302;4.634;2023-06-01T13:11:54;1.90;;;1.30;;
56653;SDS011;45096;52.302;4.634;2023-06-01T13:14:19;1.10;;;1.00;;
56653;SDS011;45096;52.302;4.634;2023-06-01T13:16:46;2.25;;;1.35;;
56653;SDS011;45096;52.302;4.634;2023-06-01T13:19:11;2.60;;;1.58;;
56653;SDS011;45096;52.302;4.634;2023-06-01T13:21:37;2.22;;;1.73;;
56653;SDS011;45096;52.302;4.634;2023-06-01T13:24:02;1.83;;;1.75;;
56653;SDS011;45096;52.302;4.634;2023-06-01T13:26:27;1.58;;;1.48;;
56653;SDS011;45096;52.302;4.634;2023-06-01T13:28:53;2.85;;;2.42;;
56653;SDS011;45096;52.302;4.634;2023-06-01T13:31:18;2.40;;;1.60;;
56653;SDS011;45096;52.302;4.634;2023-06-01T13:33:45;4.05;;;1.77;;
56653;SDS011;45096;52.302;4.634;2023-06-01T13:36:10;4.32;;;2.35;;
56653;SDS011;45096;52.302;4.634;2023-06-01T13:38:36;2.10;;;1.90;;
56653;SDS011;45096;52.302;4.634;2023-06-01T13:41:01;4.43;;;2.08;;
56653;SDS011;45096;52.302;4.634;2023-06-01T13:43:27;2.20;;;2.00;;
56653;SDS011;45096;52.302;4.634;2023-06-01T13:45:52;4.50;;;2.33;;
56653;SDS011;45096;52.302;4.634;2023-06-01T13:48:18;2.17;;;2.08;;
56653;SDS011;45096;52.302;4.634;2023-06-01T13:50:44;4.15;;;2.42;;
56653;SDS011;45096;52.302;4.634;2023-06-01T13:53:10;3.92;;;2.33;;
56653;SDS011;45096;52.302;4.634;2023-06-01T13:55:35;3.63;;;2.40;;
56653;SDS011;45096;52.302;4.634;2023-06-01T13:58:01;3.53;;;2.60;;
56653;SDS011;45096;52.302;4.634;2023-06-01T14:00:26;2.33;;;2.17;;
56653;SDS011;45096;52.302;4.634;2023-06-01T14:02:51;5.22;;;2.42;;
56653;SDS011;45096;52.302;4.634;2023-06-01T14:05:17;3.17;;;2.58;;
56653;SDS011;45096;52.302;4.634;2023-06-01T14:07:44;3.08;;;2.08;;
56653;SDS011;45096;52.302;4.634;2023-06-01T14:10:09;1.98;;;1.88;;
56653;SDS011;45096;52.302;4.634;2023-06-01T14:12:35;3.35;;;1.95;;
56653;SDS011;45096;52.302;4.634;2023-06-01T14:15:00;3.10;;;2.20;;
56653;SDS011;45096;52.302;4.634;2023-06-01T14:17:26;3.20;;;1.98;;
56653;SDS011;45096;52.302;4.634;2023-06-01T14:19:51;2.15;;;2.03;;
56653;SDS011;45096;52.302;4.634;2023-06-01T14:22:17;1.95;;;1.83;;
56653;SDS011;45096;52.302;4.634;2023-06-01T14:24:43;4.15;;;1.95;;
56653;SDS011;45096;52.302;4.634;2023-06-01T14:27:09;3.15;;;1.90;;
56653;SDS011;45096;52.302;4.634;2023-06-01T14:29:34;1.75;;;1.65;;
56653;SDS011;45096;52.302;4.634;2023-06-01T14:32:00;2.42;;;2.22;;
56653;SDS011;45096;52.302;4.634;2023-06-01T14:34:25;2.10;;;1.42;;
56653;SDS011;45096;52.302;4.634;2023-06-01T14:36:50;2.28;;;2.13;;
56653;SDS011;45096;52.302;4.634;2023-06-01T14:39:16;2.65;;;1.90;;
56653;SDS011;45096;52.302;4.634;2023-06-01T14:41:43;5.18;;;2.33;;
56653;SDS011;45096;52.302;4.634;2023-06-01T14:44:08;2.40;;;2.05;;
56653;SDS011;45096;52.302;4.634;2023-06-01T14:46:33;2.40;;;1.77;;
56653;SDS011;45096;52.302;4.634;2023-06-01T14:48:59;2.55;;;1.80;;
56653;SDS011;45096;52.302;4.634;2023-06-01T14:51:24;3.67;;;1.95;;
56653;SDS011;45096;52.302;4.634;2023-06-01T14:53:50;2.78;;;1.83;;
56653;SDS011;45096;52.302;4.634;2023-06-01T14:56:15;1.77;;;1.67;;
56653;SDS011;45096;52.302;4.634;2023-06-01T14:58:42;3.42;;;2.00;;
56653;SDS011;45096;52.302;4.634;2023-06-01T15:01:07;2.92;;;1.58;;